• Join FlightAware (Why Join?)
  • Login
  • US Flag 
04:25AM EDT


 

Airport Tracker/Info


-or-


 

Live Flight TrackerFlight Track Log ✈ SWA59 ✈ 23.04.2013 ✈ KDAL - KHOU

Flight Track Log - Related Links

Times and Time Zones

All times are in EDT time to prevent confusion due to time zone crossing. See the SWA59 flight status page for this flight to view local times or setup timezone preferences in your user account.

Time Position Orientation Groundspeed Altitude Reporting Facility
EDT Latitude Longitude Course Direction KTS MPH feet Rate Location/Type
10:39PM 32.9000 -96.9167 308° West 197 227 4,800  Level Dallas / Fort Worth TRACON
10:40PM 32.8833 -96.9667 248° West 233 268 8,700 3,240 Climbing Dallas / Fort Worth TRACON
10:42PM 32.7367 -96.9664 180° South 288 331 14,100 3,240 Climbing Fort Worth Center
10:43PM 32.6300 -96.9594 177° South 342 394 17,900 3,300 Climbing Fort Worth Center
10:44PM 32.5381 -96.9550 178° South 369 425 20,800 3,060 Climbing Fort Worth Center
10:45PM 32.4128 -96.9458 176° South 393 452 24,100 2,640 Climbing Fort Worth Center
10:46PM 32.3106 -96.9389 177° South 412 474 26,100 2,160 Climbing Fort Worth Center
10:47PM 32.1872 -96.9225 174° South 435 501 28,500 2,520 Climbing Fort Worth Center
10:48PM 32.0642 -96.8986 171° South 450 518 31,200 2,220 Climbing Fort Worth Center
10:49PM 31.9303 -96.8772 172° South 455 524 33,000 1,200 Climbing Fort Worth Center
10:49PM 31.8736 -96.8678 172° South 439 505 33,000  Level Houston Center
10:50PM 31.8114 -96.8558 171° South 441 507 33,000  Level Fort Worth Center
10:51PM 31.6900 -96.8347 172° South 441 507 33,000  Level Fort Worth Center
10:52PM 31.5689 -96.8158 172° South 447 514 33,000  Level Fort Worth Center
10:52PM 31.5061 -96.8064 173° South 437 503 33,000  Level Houston Center
10:53PM 31.3806 -96.7858 172° South 442 509 33,000 -480 Level Houston Center
10:54PM 31.2586 -96.7508 166° South 450 518 32,100 -960 Descending Houston Center
10:55PM 31.1364 -96.6867 156° South 471 542 31,100 -960 Descending Houston Center
10:56PM 31.0150 -96.6244 156° South 471 542 30,200 -1,020 Descending Houston Center
10:57PM 30.8942 -96.5608 156° South 469 540 29,100 -1,980 Descending Houston Center
10:58PM 30.7750 -96.4992 156° South 464 534 26,200 -2,940 Descending Houston Center
10:59PM 30.6614 -96.4403 156° South 447 514 23,200 -2,880 Descending Houston Center
11:00PM 30.5917 -96.4047 156° South 428 493 21,400 -2,760 Descending Houston Center
11:00PM 30.5531 -96.3842 155° Southeast 425 489 20,400 -2,880 Descending Houston Center
11:01PM 30.4908 -96.3528 157° South 405 466 18,800 -2,700 Descending Houston Center
11:01PM 30.4497 -96.3311 156° South 404 465 17,700 -2,640 Descending Houston Center
11:02PM 30.4033 -96.3094 158° South 391 450 16,400 -2,760 Descending Houston Center
11:02PM 30.3522 -96.2808 154° Southeast 385 443 14,900 -2,760 Descending Houston Center
11:03PM 30.3025 -96.2578 158° South 369 425 13,600 -2,580 Descending Houston Center
11:03PM 30.2569 -96.2322 154° Southeast 373 429 12,300 -2,400 Descending Houston Center
11:04PM 30.2122 -96.2097 157° South 355 409 11,200 -1,320 Descending Houston Center
11:04PM 30.1692 -96.1875 156° South 344 396 11,000 -120 Descending Houston Center
11:05PM 30.1353 -96.1678 153° Southeast 335 386 11,100  Climbing Houston Center
11:05PM 30.0964 -96.1469 155° Southeast 335 386 11,000  Descending Houston Center
11:06PM 30.0408 -96.1181 156° South 334 384 11,100 -120 Climbing Houston Center
11:06PM 29.9936 -96.0939 156° South 336 387 10,900  Descending Houston Center
11:07PM 29.9550 -96.0725 154° Southeast 336 387 11,100  Climbing Houston Center
11:07PM 29.9072 -96.0472 155° Southeast 341 392 10,900  Descending Houston Center
11:08PM 29.8694 -96.0292 157° South 339 390 11,100 -120 Climbing Houston Center
11:08PM 29.8261 -96.0056 155° Southeast 338 389 10,800 -720 Descending Houston Center
11:09PM 29.7911 -95.9706 139° Southeast 308 354 10,400 -900 Descending Houston Center
11:09PM 29.7739 -95.9308 117° Southeast 312 359 9,900 -1,020 Descending Houston Center
11:10PM 29.7564 -95.8856 114° Southeast 289 333 9,400 -1,020 Descending Houston Center
11:10PM 29.7392 -95.8481 118° Southeast 291 335 8,900 -1,140 Descending Houston Center
11:11PM 29.7267 -95.8119 112° Southeast 279 321 8,400 -1,020 Descending Houston Center
11:11PM 29.7081 -95.7667 115° Southeast 279 321 7,900 -1,260 Descending Houston Center
11:12PM 29.6864 -95.7111 114° Southeast 279 321 6,900 -1,500 Descending Houston Center
11:12PM 29.6750 -95.6864 118° Southeast 279 321 6,400 -1,440 Descending Houston Center
11:13PM 29.6569 -95.6422 115° Southeast 268 308 5,600 -1,380 Descending Houston Center
11:13PM 29.6439 -95.6106 115° Southeast 268 308 5,000 -900 Descending Houston Center
11:14PM 29.6250 -95.5667 116° Southeast 254 292 4,700 -540 Descending Houston Center
11:15PM 29.6147 -95.5392 113° Southeast 255 293 4,500 -540 Descending Houston Center
11:15PM 29.6025 -95.5022 111° Southeast 211 243 4,200 -1,140 Descending Houston Center
11:16PM 29.5989 -95.4758 99° East 218 251 3,400 -1,320 Descending Houston Center
11:16PM 29.5939 -95.4311 97° East 228 262 2,900 -1,020 Descending Houston Center
11:17PM 29.5903 -95.3906 96° East 222 255 2,400 -900 Descending Houston Center
11:17PM 29.5914 -95.3592 88° East 182 209 1,900 -1,020 Descending Houston Center
11:18PM 29.5975 -95.3342 74° East 199 229 1,400 -1,140 Descending Houston Center
11:18PM 29.6108 -95.3186 45° Northeast 151 174 900 -1,020 Descending Houston Center
11:19PM 29.6261 -95.2992 48° Northeast 168 193 400 -540 Descending Houston Center
11:20PM 29.6519 -95.2703 44° Northeast 158 182 100 -300 Descending Houston Center